sensor_id;sensor_type;location;lat;lon;timestamp;temperature;humidity
24618;DHT22;12762;51.730;5.356;2023-07-28T00:00:06;19.00;95.60
24618;DHT22;12762;51.730;5.356;2023-07-28T00:02:34;19.00;95.60
24618;DHT22;12762;51.730;5.356;2023-07-28T00:05:01;19.00;95.60
24618;DHT22;12762;51.730;5.356;2023-07-28T00:07:27;19.00;95.70
24618;DHT22;12762;51.730;5.356;2023-07-28T00:09:54;19.00;95.70
24618;DHT22;12762;51.730;5.356;2023-07-28T00:12:21;19.00;95.70
24618;DHT22;12762;51.730;5.356;2023-07-28T00:14:48;19.00;95.70
24618;DHT22;12762;51.730;5.356;2023-07-28T00:17:15;19.00;95.70
24618;DHT22;12762;51.730;5.356;2023-07-28T00:19:42;19.00;95.70
24618;DHT22;12762;51.730;5.356;2023-07-28T00:22:09;19.00;95.80
24618;DHT22;12762;51.730;5.356;2023-07-28T00:24:36;19.00;95.80
24618;DHT22;12762;51.730;5.356;2023-07-28T00:27:03;19.00;95.90
24618;DHT22;12762;51.730;5.356;2023-07-28T00:29:29;19.00;95.80
24618;DHT22;12762;51.730;5.356;2023-07-28T00:31:56;19.00;95.90
24618;DHT22;12762;51.730;5.356;2023-07-28T00:34:23;19.00;95.90
24618;DHT22;12762;51.730;5.356;2023-07-28T00:36:50;19.00;95.90
24618;DHT22;12762;51.730;5.356;2023-07-28T00:39:17;19.00;95.90
24618;DHT22;12762;51.730;5.356;2023-07-28T00:41:45;19.00;96.00
24618;DHT22;12762;51.730;5.356;2023-07-28T00:44:11;19.00;96.00
24618;DHT22;12762;51.730;5.356;2023-07-28T00:46:38;19.00;96.00
24618;DHT22;12762;51.730;5.356;2023-07-28T00:49:05;19.00;96.00
24618;DHT22;12762;51.730;5.356;2023-07-28T00:51:35;19.00;96.00
24618;DHT22;12762;51.730;5.356;2023-07-28T00:54:03;19.00;96.00
24618;DHT22;12762;51.730;5.356;2023-07-28T00:56:31;19.00;96.00
24618;DHT22;12762;51.730;5.356;2023-07-28T00:58:59;19.00;96.00
24618;DHT22;12762;51.730;5.356;2023-07-28T01:01:26;19.00;96.00
24618;DHT22;12762;51.730;5.356;2023-07-28T01:03:54;19.00;96.10
24618;DHT22;12762;51.730;5.356;2023-07-28T01:06:30;19.10;96.10
24618;DHT22;12762;51.730;5.356;2023-07-28T01:09:05;19.10;96.00
24618;DHT22;12762;51.730;5.356;2023-07-28T01:11:35;19.10;96.00
24618;DHT22;12762;51.730;5.356;2023-07-28T01:14:02;19.10;96.40
24618;DHT22;12762;51.730;5.356;2023-07-28T01:16:29;19.10;96.10
24618;DHT22;12762;51.730;5.356;2023-07-28T01:18:55;19.10;96.10
24618;DHT22;12762;51.730;5.356;2023-07-28T01:21:28;19.10;96.10
24618;DHT22;12762;51.730;5.356;2023-07-28T01:24:55;19.10;96.10
24618;DHT22;12762;51.730;5.356;2023-07-28T01:26:59;19.10;95.90
24618;DHT22;12762;51.730;5.356;2023-07-28T01:29:26;19.10;96.10
24618;DHT22;12762;51.730;5.356;2023-07-28T01:31:53;19.10;96.10
24618;DHT22;12762;51.730;5.356;2023-07-28T01:34:20;19.10;96.10
24618;DHT22;12762;51.730;5.356;2023-07-28T01:36:47;19.10;96.10
24618;DHT22;12762;51.730;5.356;2023-07-28T01:39:14;19.20;96.20
24618;DHT22;12762;51.730;5.356;2023-07-28T01:41:41;19.10;96.20
24618;DHT22;12762;51.730;5.356;2023-07-28T01:44:12;19.20;96.20
24618;DHT22;12762;51.730;5.356;2023-07-28T01:46:39;19.20;96.10
24618;DHT22;12762;51.730;5.356;2023-07-28T01:49:06;19.20;96.10
24618;DHT22;12762;51.730;5.356;2023-07-28T01:51:33;19.20;96.10
24618;DHT22;12762;51.730;5.356;2023-07-28T01:54:00;19.20;96.20
24618;DHT22;12762;51.730;5.356;2023-07-28T01:56:26;19.20;96.10
24618;DHT22;12762;51.730;5.356;2023-07-28T01:58:53;19.20;96.10
24618;DHT22;12762;51.730;5.356;2023-07-28T02:01:20;19.20;96.10
24618;DHT22;12762;51.730;5.356;2023-07-28T02:03:47;19.20;96.10
24618;DHT22;12762;51.730;5.356;2023-07-28T02:06:13;19.20;96.10
24618;DHT22;12762;51.730;5.356;2023-07-28T02:08:40;19.20;96.50
24618;DHT22;12762;51.730;5.356;2023-07-28T02:11:07;19.20;96.10
24618;DHT22;12762;51.730;5.356;2023-07-28T02:13:34;19.20;96.20
24618;DHT22;12762;51.730;5.356;2023-07-28T02:16:08;19.20;96.20
24618;DHT22;12762;51.730;5.356;2023-07-28T02:18:35;19.20;96.20
24618;DHT22;12762;51.730;5.356;2023-07-28T02:21:01;19.20;96.20
24618;DHT22;12762;51.730;5.356;2023-07-28T02:23:28;19.20;96.20
24618;DHT22;12762;51.730;5.356;2023-07-28T02:25:58;19.20;96.20
24618;DHT22;12762;51.730;5.356;2023-07-28T02:28:25;19.20;96.30
24618;DHT22;12762;51.730;5.356;2023-07-28T02:30:52;19.20;96.20
24618;DHT22;12762;51.730;5.356;2023-07-28T02:33:19;19.20;96.30
24618;DHT22;12762;51.730;5.356;2023-07-28T02:35:45;19.20;96.30
24618;DHT22;12762;51.730;5.356;2023-07-28T02:38:15;19.20;96.30
24618;DHT22;12762;51.730;5.356;2023-07-28T02:40:43;19.20;96.30
24618;DHT22;12762;51.730;5.356;2023-07-28T02:43:09;19.20;96.30
24618;DHT22;12762;51.730;5.356;2023-07-28T02:45:38;19.20;96.30
24618;DHT22;12762;51.730;5.356;2023-07-28T02:48:05;19.20;96.30
24618;DHT22;12762;51.730;5.356;2023-07-28T02:50:32;19.20;96.30
24618;DHT22;12762;51.730;5.356;2023-07-28T02:52:59;19.20;96.30
24618;DHT22;12762;51.730;5.356;2023-07-28T02:55:26;19.20;96.30
24618;DHT22;12762;51.730;5.356;2023-07-28T02:57:53;19.20;96.30
24618;DHT22;12762;51.730;5.356;2023-07-28T03:00:20;19.20;96.30
24618;DHT22;12762;51.730;5.356;2023-07-28T03:02:46;19.20;96.30
24618;DHT22;12762;51.730;5.356;2023-07-28T03:05:13;19.20;96.40
24618;DHT22;12762;51.730;5.356;2023-07-28T03:07:40;19.20;96.40
24618;DHT22;12762;51.730;5.356;2023-07-28T03:10:07;19.20;96.40
24618;DHT22;12762;51.730;5.356;2023-07-28T03:12:34;19.20;96.50
24618;DHT22;12762;51.730;5.356;2023-07-28T03:15:01;19.20;96.50
24618;DHT22;12762;51.730;5.356;2023-07-28T03:17:28;19.20;96.50
24618;DHT22;12762;51.730;5.356;2023-07-28T03:19:55;19.20;96.50
24618;DHT22;12762;51.730;5.356;2023-07-28T03:22:21;19.20;96.50
24618;DHT22;12762;51.730;5.356;2023-07-28T03:24:48;19.20;96.50
24618;DHT22;12762;51.730;5.356;2023-07-28T03:27:16;19.20;96.50
24618;DHT22;12762;51.730;5.356;2023-07-28T03:29:43;19.20;96.50
24618;DHT22;12762;51.730;5.356;2023-07-28T03:32:10;19.20;96.60
24618;DHT22;12762;51.730;5.356;2023-07-28T03:34:36;19.20;96.60
24618;DHT22;12762;51.730;5.356;2023-07-28T03:37:03;19.20;96.60
24618;DHT22;12762;51.730;5.356;2023-07-28T03:39:31;19.20;96.60
24618;DHT22;12762;51.730;5.356;2023-07-28T03:42:00;19.20;96.70
24618;DHT22;12762;51.730;5.356;2023-07-28T03:44:27;19.20;96.60
24618;DHT22;12762;51.730;5.356;2023-07-28T03:46:54;19.20;96.70
24618;DHT22;12762;51.730;5.356;2023-07-28T03:49:21;19.20;96.70
24618;DHT22;12762;51.730;5.356;2023-07-28T03:51:48;19.20;96.70
24618;DHT22;12762;51.730;5.356;2023-07-28T03:54:15;19.20;96.70
24618;DHT22;12762;51.730;5.356;2023-07-28T03:56:41;19.20;96.70
24618;DHT22;12762;51.730;5.356;2023-07-28T03:59:09;19.20;96.70
24618;DHT22;12762;51.730;5.356;2023-07-28T04:01:36;19.20;96.70
24618;DHT22;12762;51.730;5.356;2023-07-28T04:04:03;19.20;96.70
24618;DHT22;12762;51.730;5.356;2023-07-28T04:06:42;19.20;96.70
24618;DHT22;12762;51.730;5.356;2023-07-28T04:09:10;19.20;96.60
24618;DHT22;12762;51.730;5.356;2023-07-28T04:11:38;19.20;96.70
24618;DHT22;12762;51.730;5.356;2023-07-28T04:14:05;19.20;96.70
24618;DHT22;12762;51.730;5.356;2023-07-28T04:16:32;19.20;96.70
24618;DHT22;12762;51.730;5.356;2023-07-28T04:18:59;19.20;96.70
24618;DHT22;12762;51.730;5.356;2023-07-28T04:21:26;19.20;96.70
24618;DHT22;12762;51.730;5.356;2023-07-28T04:23:53;19.20;97.10
24618;DHT22;12762;51.730;5.356;2023-07-28T04:26:20;19.20;96.70
24618;DHT22;12762;51.730;5.356;2023-07-28T04:28:47;19.20;96.80
24618;DHT22;12762;51.730;5.356;2023-07-28T04:31:14;19.20;96.70
24618;DHT22;12762;51.730;5.356;2023-07-28T04:33:41;19.20;96.70
24618;DHT22;12762;51.730;5.356;2023-07-28T04:36:09;19.20;96.80
24618;DHT22;12762;51.730;5.356;2023-07-28T04:38:36;19.20;96.70
24618;DHT22;12762;51.730;5.356;2023-07-28T04:41:03;19.20;96.70
24618;DHT22;12762;51.730;5.356;2023-07-28T04:43:29;19.20;97.00
24618;DHT22;12762;51.730;5.356;2023-07-28T04:45:59;19.20;96.70
24618;DHT22;12762;51.730;5.356;2023-07-28T04:48:27;19.20;96.70
24618;DHT22;12762;51.730;5.356;2023-07-28T04:50:54;19.20;96.80
24618;DHT22;12762;51.730;5.356;2023-07-28T04:53:27;19.20;96.90
24618;DHT22;12762;51.730;5.356;2023-07-28T04:55:54;19.20;96.90
24618;DHT22;12762;51.730;5.356;2023-07-28T04:58:23;19.20;96.90
24618;DHT22;12762;51.730;5.356;2023-07-28T05:00:50;19.10;96.90
24618;DHT22;12762;51.730;5.356;2023-07-28T05:03:17;19.10;96.90
24618;DHT22;12762;51.730;5.356;2023-07-28T05:05:47;19.10;97.00
24618;DHT22;12762;51.730;5.356;2023-07-28T05:08:16;19.20;97.00
24618;DHT22;12762;51.730;5.356;2023-07-28T05:10:46;19.10;97.00
24618;DHT22;12762;51.730;5.356;2023-07-28T05:13:15;19.10;97.10
24618;DHT22;12762;51.730;5.356;2023-07-28T05:15:42;19.20;97.20
24618;DHT22;12762;51.730;5.356;2023-07-28T05:18:09;19.20;97.20
24618;DHT22;12762;51.730;5.356;2023-07-28T05:20:36;19.20;97.20
24618;DHT22;12762;51.730;5.356;2023-07-28T05:23:03;19.20;97.20
24618;DHT22;12762;51.730;5.356;2023-07-28T05:25:29;19.20;97.20
24618;DHT22;12762;51.730;5.356;2023-07-28T05:27:57;19.20;97.20
24618;DHT22;12762;51.730;5.356;2023-07-28T05:30:23;19.20;97.20
24618;DHT22;12762;51.730;5.356;2023-07-28T05:32:55;19.20;97.20
24618;DHT22;12762;51.730;5.356;2023-07-28T05:35:22;19.30;97.30
24618;DHT22;12762;51.730;5.356;2023-07-28T05:37:49;19.30;97.20
24618;DHT22;12762;51.730;5.356;2023-07-28T05:40:15;19.30;97.20
24618;DHT22;12762;51.730;5.356;2023-07-28T05:42:42;19.30;97.20
24618;DHT22;12762;51.730;5.356;2023-07-28T05:45:10;19.30;97.20
24618;DHT22;12762;51.730;5.356;2023-07-28T05:47:36;19.30;97.20
24618;DHT22;12762;51.730;5.356;2023-07-28T05:50:04;19.30;97.20
24618;DHT22;12762;51.730;5.356;2023-07-28T05:52:32;19.30;97.20
24618;DHT22;12762;51.730;5.356;2023-07-28T05:54:59;19.40;97.30
24618;DHT22;12762;51.730;5.356;2023-07-28T05:57:25;19.40;97.30
24618;DHT22;12762;51.730;5.356;2023-07-28T05:59:52;19.40;97.20
24618;DHT22;12762;51.730;5.356;2023-07-28T06:02:19;19.40;97.10
24618;DHT22;12762;51.730;5.356;2023-07-28T06:04:46;19.40;97.10
24618;DHT22;12762;51.730;5.356;2023-07-28T06:07:13;19.50;97.20
24618;DHT22;12762;51.730;5.356;2023-07-28T06:09:39;19.50;97.20
24618;DHT22;12762;51.730;5.356;2023-07-28T06:12:07;19.50;97.20
24618;DHT22;12762;51.730;5.356;2023-07-28T06:14:33;19.50;97.20
24618;DHT22;12762;51.730;5.356;2023-07-28T06:17:00;19.50;97.20
24618;DHT22;12762;51.730;5.356;2023-07-28T06:19:27;19.50;97.20
24618;DHT22;12762;51.730;5.356;2023-07-28T06:21:54;19.50;97.10
24618;DHT22;12762;51.730;5.356;2023-07-28T06:24:21;19.50;97.10
24618;DHT22;12762;51.730;5.356;2023-07-28T06:26:48;19.50;97.10
24618;DHT22;12762;51.730;5.356;2023-07-28T06:29:15;19.60;97.10
24618;DHT22;12762;51.730;5.356;2023-07-28T06:31:42;19.60;97.10
24618;DHT22;12762;51.730;5.356;2023-07-28T06:34:08;19.70;97.20
24618;DHT22;12762;51.730;5.356;2023-07-28T06:36:36;19.70;97.20
24618;DHT22;12762;51.730;5.356;2023-07-28T06:39:03;19.70;97.50
24618;DHT22;12762;51.730;5.356;2023-07-28T06:41:31;19.70;97.10
24618;DHT22;12762;51.730;5.356;2023-07-28T06:43:58;19.80;97.10
24618;DHT22;12762;51.730;5.356;2023-07-28T06:46:24;19.80;97.00
24618;DHT22;12762;51.730;5.356;2023-07-28T06:48:51;19.80;97.00
24618;DHT22;12762;51.730;5.356;2023-07-28T06:51:18;19.90;97.10
24618;DHT22;12762;51.730;5.356;2023-07-28T06:53:46;19.90;97.00
24618;DHT22;12762;51.730;5.356;2023-07-28T06:56:12;19.90;97.00
24618;DHT22;12762;51.730;5.356;2023-07-28T06:58:39;19.90;96.90
24618;DHT22;12762;51.730;5.356;2023-07-28T07:01:07;19.90;96.90
24618;DHT22;12762;51.730;5.356;2023-07-28T07:03:37;19.90;96.80
24618;DHT22;12762;51.730;5.356;2023-07-28T07:06:04;19.90;96.80
24618;DHT22;12762;51.730;5.356;2023-07-28T07:08:31;20.00;96.80
24618;DHT22;12762;51.730;5.356;2023-07-28T07:11:00;20.00;96.80
24618;DHT22;12762;51.730;5.356;2023-07-28T07:13:27;20.10;96.70
24618;DHT22;12762;51.730;5.356;2023-07-28T07:15:54;20.10;96.70
24618;DHT22;12762;51.730;5.356;2023-07-28T07:18:21;20.20;96.70
24618;DHT22;12762;51.730;5.356;2023-07-28T07:20:48;20.20;96.60
24618;DHT22;12762;51.730;5.356;2023-07-28T07:23:15;20.20;96.40
24618;DHT22;12762;51.730;5.356;2023-07-28T07:25:42;20.20;96.30
24618;DHT22;12762;51.730;5.356;2023-07-28T07:28:11;20.30;96.40
24618;DHT22;12762;51.730;5.356;2023-07-28T07:30:38;20.30;96.30
24618;DHT22;12762;51.730;5.356;2023-07-28T07:33:06;20.30;96.30
24618;DHT22;12762;51.730;5.356;2023-07-28T07:35:36;20.30;96.10
24618;DHT22;12762;51.730;5.356;2023-07-28T07:38:04;20.30;96.00
24618;DHT22;12762;51.730;5.356;2023-07-28T07:40:36;20.30;96.00
24618;DHT22;12762;51.730;5.356;2023-07-28T07:43:03;20.40;95.90
24618;DHT22;12762;51.730;5.356;2023-07-28T07:45:30;20.40;95.90
24618;DHT22;12762;51.730;5.356;2023-07-28T07:47:58;20.40;95.80
24618;DHT22;12762;51.730;5.356;2023-07-28T07:50:28;20.40;95.70
24618;DHT22;12762;51.730;5.356;2023-07-28T07:52:55;20.40;95.60
24618;DHT22;12762;51.730;5.356;2023-07-28T07:55:22;20.40;95.90
24618;DHT22;12762;51.730;5.356;2023-07-28T07:57:49;20.40;95.60
24618;DHT22;12762;51.730;5.356;2023-07-28T08:00:16;20.40;95.60
24618;DHT22;12762;51.730;5.356;2023-07-28T08:02:43;20.40;95.60
24618;DHT22;12762;51.730;5.356;2023-07-28T08:05:12;20.40;95.60
24618;DHT22;12762;51.730;5.356;2023-07-28T08:07:39;20.40;95.60
24618;DHT22;12762;51.730;5.356;2023-07-28T08:10:07;20.40;95.50
24618;DHT22;12762;51.730;5.356;2023-07-28T08:12:34;20.50;95.50
24618;DHT22;12762;51.730;5.356;2023-07-28T08:15:01;20.50;95.50
24618;DHT22;12762;51.730;5.356;2023-07-28T08:17:28;20.50;95.40
24618;DHT22;12762;51.730;5.356;2023-07-28T08:19:54;20.50;95.30
24618;DHT22;12762;51.730;5.356;2023-07-28T08:22:21;20.50;95.30
24618;DHT22;12762;51.730;5.356;2023-07-28T08:24:49;20.50;95.30
24618;DHT22;12762;51.730;5.356;2023-07-28T08:27:15;20.50;95.30
24618;DHT22;12762;51.730;5.356;2023-07-28T08:29:42;20.50;95.20
24618;DHT22;12762;51.730;5.356;2023-07-28T08:32:09;20.60;95.20
24618;DHT22;12762;51.730;5.356;2023-07-28T08:34:39;20.60;95.10
24618;DHT22;12762;51.730;5.356;2023-07-28T08:37:06;20.60;95.10
24618;DHT22;12762;51.730;5.356;2023-07-28T08:39:33;20.60;95.00
24618;DHT22;12762;51.730;5.356;2023-07-28T08:42:01;20.70;95.00
24618;DHT22;12762;51.730;5.356;2023-07-28T08:44:35;20.70;94.90
24618;DHT22;12762;51.730;5.356;2023-07-28T08:47:03;20.70;94.90
24618;DHT22;12762;51.730;5.356;2023-07-28T08:49:31;20.70;94.80
24618;DHT22;12762;51.730;5.356;2023-07-28T08:52:00;20.70;94.70
24618;DHT22;12762;51.730;5.356;2023-07-28T08:54:28;20.60;94.60
24618;DHT22;12762;51.730;5.356;2023-07-28T08:56:55;20.60;94.70
24618;DHT22;12762;51.730;5.356;2023-07-28T08:59:29;20.70;94.80
24618;DHT22;12762;51.730;5.356;2023-07-28T09:01:57;20.80;94.90
24618;DHT22;12762;51.730;5.356;2023-07-28T09:04:27;20.90;94.90
24618;DHT22;12762;51.730;5.356;2023-07-28T09:06:54;21.10;94.70
24618;DHT22;12762;51.730;5.356;2023-07-28T09:09:22;21.10;94.50
24618;DHT22;12762;51.730;5.356;2023-07-28T09:11:51;21.20;94.30
24618;DHT22;12762;51.730;5.356;2023-07-28T09:14:20;21.30;94.20
24618;DHT22;12762;51.730;5.356;2023-07-28T09:16:47;21.30;94.00
24618;DHT22;12762;51.730;5.356;2023-07-28T09:19:14;21.40;93.90
24618;DHT22;12762;51.730;5.356;2023-07-28T09:21:44;21.40;93.80
24618;DHT22;12762;51.730;5.356;2023-07-28T09:24:16;21.40;93.70
24618;DHT22;12762;51.730;5.356;2023-07-28T09:26:47;21.50;93.70
24618;DHT22;12762;51.730;5.356;2023-07-28T09:29:18;21.70;93.70
24618;DHT22;12762;51.730;5.356;2023-07-28T09:31:46;21.80;93.50
24618;DHT22;12762;51.730;5.356;2023-07-28T09:34:27;21.90;93.20
24618;DHT22;12762;51.730;5.356;2023-07-28T09:36:54;22.00;93.10
24618;DHT22;12762;51.730;5.356;2023-07-28T09:39:22;22.20;92.90
24618;DHT22;12762;51.730;5.356;2023-07-28T09:41:49;22.30;92.80
24618;DHT22;12762;51.730;5.356;2023-07-28T09:44:16;22.40;92.60
24618;DHT22;12762;51.730;5.356;2023-07-28T09:46:54;22.50;92.40
24618;DHT22;12762;51.730;5.356;2023-07-28T09:49:34;22.60;92.30
24618;DHT22;12762;51.730;5.356;2023-07-28T09:52:05;22.60;92.40
24618;DHT22;12762;51.730;5.356;2023-07-28T09:54:40;22.70;91.90
24618;DHT22;12762;51.730;5.356;2023-07-28T09:57:14;22.70;92.20
24618;DHT22;12762;51.730;5.356;2023-07-28T09:59:45;22.70;91.60
24618;DHT22;12762;51.730;5.356;2023-07-28T10:02:16;22.80;91.60
24618;DHT22;12762;51.730;5.356;2023-07-28T10:04:44;22.80;91.40
24618;DHT22;12762;51.730;5.356;2023-07-28T10:07:11;22.80;91.20
24618;DHT22;12762;51.730;5.356;2023-07-28T10:09:39;22.90;91.10
24618;DHT22;12762;51.730;5.356;2023-07-28T10:12:06;22.90;90.90
24618;DHT22;12762;51.730;5.356;2023-07-28T10:14:37;23.00;90.90
24618;DHT22;12762;51.730;5.356;2023-07-28T10:17:05;23.10;90.90
24618;DHT22;12762;51.730;5.356;2023-07-28T10:19:36;23.20;90.70
24618;DHT22;12762;51.730;5.356;2023-07-28T10:22:08;23.20;90.50
24618;DHT22;12762;51.730;5.356;2023-07-28T10:27:35;23.40;90.40
24618;DHT22;12762;51.730;5.356;2023-07-28T10:30:09;23.50;90.30
24618;DHT22;12762;51.730;5.356;2023-07-28T10:32:41;23.70;90.00
24618;DHT22;12762;51.730;5.356;2023-07-28T10:37:38;23.90;88.80
24618;DHT22;12762;51.730;5.356;2023-07-28T10:40:35;24.10;88.20
24618;DHT22;12762;51.730;5.356;2023-07-28T10:43:03;24.30;88.60
24618;DHT22;12762;51.730;5.356;2023-07-28T10:45:32;24.50;87.50
24618;DHT22;12762;51.730;5.356;2023-07-28T10:48:00;24.70;87.20
24618;DHT22;12762;51.730;5.356;2023-07-28T10:50:29;24.90;86.30
24618;DHT22;12762;51.730;5.356;2023-07-28T10:52:59;25.00;85.90
24618;DHT22;12762;51.730;5.356;2023-07-28T10:55:27;25.30;85.10
24618;DHT22;12762;51.730;5.356;2023-07-28T10:57:54;25.50;84.90
24618;DHT22;12762;51.730;5.356;2023-07-28T11:00:23;25.70;84.30
24618;DHT22;12762;51.730;5.356;2023-07-28T11:02:52;25.90;83.00
24618;DHT22;12762;51.730;5.356;2023-07-28T11:07:51;26.00;81.80
24618;DHT22;12762;51.730;5.356;2023-07-28T11:10:18;26.10;81.40
24618;DHT22;12762;51.730;5.356;2023-07-28T11:12:47;26.20;81.80
24618;DHT22;12762;51.730;5.356;2023-07-28T11:15:17;26.30;81.70
24618;DHT22;12762;51.730;5.356;2023-07-28T11:17:49;26.60;81.00
24618;DHT22;12762;51.730;5.356;2023-07-28T11:20:17;26.70;80.30
24618;DHT22;12762;51.730;5.356;2023-07-28T11:22:53;26.80;79.30
24618;DHT22;12762;51.730;5.356;2023-07-28T11:25:21;26.80;78.50
24618;DHT22;12762;51.730;5.356;2023-07-28T11:27:49;26.70;78.10
24618;DHT22;12762;51.730;5.356;2023-07-28T11:30:17;26.70;78.10
24618;DHT22;12762;51.730;5.356;2023-07-28T11:32:46;26.60;77.60
24618;DHT22;12762;51.730;5.356;2023-07-28T11:35:15;26.60;77.50
24618;DHT22;12762;51.730;5.356;2023-07-28T11:37:45;26.60;77.00
24618;DHT22;12762;51.730;5.356;2023-07-28T11:40:16;26.60;76.80
24618;DHT22;12762;51.730;5.356;2023-07-28T11:42:51;26.70;77.00
24618;DHT22;12762;51.730;5.356;2023-07-28T11:45:19;26.90;76.50
24618;DHT22;12762;51.730;5.356;2023-07-28T11:48:08;26.80;76.00
24618;DHT22;12762;51.730;5.356;2023-07-28T11:50:38;26.80;76.30
24618;DHT22;12762;51.730;5.356;2023-07-28T11:53:06;26.70;76.30
24618;DHT22;12762;51.730;5.356;2023-07-28T11:55:36;26.90;76.50
24618;DHT22;12762;51.730;5.356;2023-07-28T11:58:07;27.10;76.20
24618;DHT22;12762;51.730;5.356;2023-07-28T12:00:35;27.40;76.50
24618;DHT22;12762;51.730;5.356;2023-07-28T12:03:06;27.70;75.30
24618;DHT22;12762;51.730;5.356;2023-07-28T12:05:38;27.80;74.20
24618;DHT22;12762;51.730;5.356;2023-07-28T12:08:33;27.80;73.80
24618;DHT22;12762;51.730;5.356;2023-07-28T12:11:04;27.80;74.40
24618;DHT22;12762;51.730;5.356;2023-07-28T12:13:49;27.90;73.90
24618;DHT22;12762;51.730;5.356;2023-07-28T12:16:54;27.90;73.40
24618;DHT22;12762;51.730;5.356;2023-07-28T12:19:24;27.90;73.40
24618;DHT22;12762;51.730;5.356;2023-07-28T12:21:51;28.00;72.60
24618;DHT22;12762;51.730;5.356;2023-07-28T12:24:19;27.90;72.30
24618;DHT22;12762;51.730;5.356;2023-07-28T12:26:46;27.90;72.10
24618;DHT22;12762;51.730;5.356;2023-07-28T12:29:14;27.80;73.10
24618;DHT22;12762;51.730;5.356;2023-07-28T12:31:56;27.80;72.90
24618;DHT22;12762;51.730;5.356;2023-07-28T12:34:28;27.80;73.10
24618;DHT22;12762;51.730;5.356;2023-07-28T12:37:01;27.80;73.50
24618;DHT22;12762;51.730;5.356;2023-07-28T12:39:28;28.00;73.20
24618;DHT22;12762;51.730;5.356;2023-07-28T12:41:58;28.00;72.90
24618;DHT22;12762;51.730;5.356;2023-07-28T12:44:28;28.00;72.40
24618;DHT22;12762;51.730;5.356;2023-07-28T12:46:57;28.00;72.60
24618;DHT22;12762;51.730;5.356;2023-07-28T12:49:24;27.90;72.00
24618;DHT22;12762;51.730;5.356;2023-07-28T12:51:51;27.80;72.60
24618;DHT22;12762;51.730;5.356;2023-07-28T12:54:21;27.70;72.10
24618;DHT22;12762;51.730;5.356;2023-07-28T12:56:54;27.40;72.20
24618;DHT22;12762;51.730;5.356;2023-07-28T12:59:24;27.20;72.50
24618;DHT22;12762;51.730;5.356;2023-07-28T13:01:51;27.10;72.40
24618;DHT22;12762;51.730;5.356;2023-07-28T13:04:20;26.90;72.40
24618;DHT22;12762;51.730;5.356;2023-07-28T13:06:47;26.70;72.70
24618;DHT22;12762;51.730;5.356;2023-07-28T13:09:14;26.70;72.80
24618;DHT22;12762;51.730;5.356;2023-07-28T13:11:44;26.60;73.00
24618;DHT22;12762;51.730;5.356;2023-07-28T13:14:16;26.60;72.90
24618;DHT22;12762;51.730;5.356;2023-07-28T13:16:43;26.60;73.80
24618;DHT22;12762;51.730;5.356;2023-07-28T13:19:11;26.60;72.60
24618;DHT22;12762;51.730;5.356;2023-07-28T13:21:38;26.60;72.50
24618;DHT22;12762;51.730;5.356;2023-07-28T13:24:05;26.70;72.40
24618;DHT22;12762;51.730;5.356;2023-07-28T13:26:31;26.60;71.90
24618;DHT22;12762;51.730;5.356;2023-07-28T13:28:58;26.60;71.70
24618;DHT22;12762;51.730;5.356;2023-07-28T13:31:28;26.50;71.60
24618;DHT22;12762;51.730;5.356;2023-07-28T13:33:55;26.40;71.00
24618;DHT22;12762;51.730;5.356;2023-07-28T13:36:25;26.30;71.10
24618;DHT22;12762;51.730;5.356;2023-07-28T13:38:51;26.30;71.20
24618;DHT22;12762;51.730;5.356;2023-07-28T13:41:18;26.40;70.90
24618;DHT22;12762;51.730;5.356;2023-07-28T13:43:45;26.50;70.90
24618;DHT22;12762;51.730;5.356;2023-07-28T13:46:12;26.70;71.00
24618;DHT22;12762;51.730;5.356;2023-07-28T13:48:40;26.90;70.50
24618;DHT22;12762;51.730;5.356;2023-07-28T13:51:18;27.10;69.70
24618;DHT22;12762;51.730;5.356;2023-07-28T13:53:49;27.20;69.30
24618;DHT22;12762;51.730;5.356;2023-07-28T13:56:19;27.10;68.70
24618;DHT22;12762;51.730;5.356;2023-07-28T13:58:48;27.00;68.80
24618;DHT22;12762;51.730;5.356;2023-07-28T14:01:19;27.00;68.60
24618;DHT22;12762;51.730;5.356;2023-07-28T14:03:48;26.90;69.00
24618;DHT22;12762;51.730;5.356;2023-07-28T14:06:19;26.80;68.90
24618;DHT22;12762;51.730;5.356;2023-07-28T14:08:45;26.80;69.30
24618;DHT22;12762;51.730;5.356;2023-07-28T14:11:12;26.80;69.50
24618;DHT22;12762;51.730;5.356;2023-07-28T14:13:39;26.80;68.90
24618;DHT22;12762;51.730;5.356;2023-07-28T14:16:06;26.70;69.00
24618;DHT22;12762;51.730;5.356;2023-07-28T14:18:33;26.70;68.90
24618;DHT22;12762;51.730;5.356;2023-07-28T14:21:00;26.60;68.50
24618;DHT22;12762;51.730;5.356;2023-07-28T14:23:29;26.60;68.80
24618;DHT22;12762;51.730;5.356;2023-07-28T14:25:56;26.50;68.70
24618;DHT22;12762;51.730;5.356;2023-07-28T14:28:24;26.50;69.30
24618;DHT22;12762;51.730;5.356;2023-07-28T14:30:51;26.50;68.90
24618;DHT22;12762;51.730;5.356;2023-07-28T14:33:19;26.40;69.30
24618;DHT22;12762;51.730;5.356;2023-07-28T14:35:48;26.30;69.00
24618;DHT22;12762;51.730;5.356;2023-07-28T14:38:18;26.30;69.20
24618;DHT22;12762;51.730;5.356;2023-07-28T14:40:47;26.30;69.70
24618;DHT22;12762;51.730;5.356;2023-07-28T14:43:16;26.30;69.80
24618;DHT22;12762;51.730;5.356;2023-07-28T14:45:43;26.30;70.00
24618;DHT22;12762;51.730;5.356;2023-07-28T14:48:10;26.30;70.00
24618;DHT22;12762;51.730;5.356;2023-07-28T14:50:40;26.40;70.20
24618;DHT22;12762;51.730;5.356;2023-07-28T14:53:38;26.40;69.70
24618;DHT22;12762;51.730;5.356;2023-07-28T14:56:06;26.30;69.80
24618;DHT22;12762;51.730;5.356;2023-07-28T14:58:33;26.10;69.70
24618;DHT22;12762;51.730;5.356;2023-07-28T15:01:01;26.00;69.90
24618;DHT22;12762;51.730;5.356;2023-07-28T15:03:29;26.00;70.90
24618;DHT22;12762;51.730;5.356;2023-07-28T15:05:59;26.00;70.00
24618;DHT22;12762;51.730;5.356;2023-07-28T15:08:29;25.90;70.20
24618;DHT22;12762;51.730;5.356;2023-07-28T15:10:57;25.90;70.40
24618;DHT22;12762;51.730;5.356;2023-07-28T15:13:24;26.00;70.40
24618;DHT22;12762;51.730;5.356;2023-07-28T15:15:50;26.00;70.20
24618;DHT22;12762;51.730;5.356;2023-07-28T15:18:17;26.00;70.30
24618;DHT22;12762;51.730;5.356;2023-07-28T15:20:44;26.00;70.40
24618;DHT22;12762;51.730;5.356;2023-07-28T15:23:11;26.00;70.20
24618;DHT22;12762;51.730;5.356;2023-07-28T15:25:38;26.00;69.90
24618;DHT22;12762;51.730;5.356;2023-07-28T15:28:10;26.00;69.90
24618;DHT22;12762;51.730;5.356;2023-07-28T15:30:37;25.90;69.90
24618;DHT22;12762;51.730;5.356;2023-07-28T15:33:04;25.80;70.00
24618;DHT22;12762;51.730;5.356;2023-07-28T15:35:32;25.80;70.00
24618;DHT22;12762;51.730;5.356;2023-07-28T15:37:59;25.70;70.20
24618;DHT22;12762;51.730;5.356;2023-07-28T15:40:25;25.60;70.30
24618;DHT22;12762;51.730;5.356;2023-07-28T15:42:52;25.50;70.50
24618;DHT22;12762;51.730;5.356;2023-07-28T15:45:19;25.40;70.60